sensor_id;sensor_type;location;lat;lon;timestamp;P1;durP1;ratioP1;P2;durP2;ratioP2
21202;SDS011;10759;51.982;9.232;2022-10-26T00:01:21;27.65;;;11.18;;
21202;SDS011;10759;51.982;9.232;2022-10-26T00:03:49;22.40;;;12.98;;
21202;SDS011;10759;51.982;9.232;2022-10-26T00:06:19;22.63;;;12.85;;
21202;SDS011;10759;51.982;9.232;2022-10-26T00:08:50;17.00;;;11.63;;
21202;SDS011;10759;51.982;9.232;2022-10-26T00:11:19;29.33;;;11.60;;
21202;SDS011;10759;51.982;9.232;2022-10-26T00:13:47;33.45;;;13.70;;
21202;SDS011;10759;51.982;9.232;2022-10-26T00:16:15;28.30;;;13.07;;
21202;SDS011;10759;51.982;9.232;2022-10-26T00:18:45;14.25;;;10.52;;
21202;SDS011;10759;51.982;9.232;2022-10-26T00:21:13;13.93;;;10.77;;
21202;SDS011;10759;51.982;9.232;2022-10-26T00:23:42;16.55;;;11.27;;
21202;SDS011;10759;51.982;9.232;2022-10-26T00:26:11;11.43;;;10.27;;
21202;SDS011;10759;51.982;9.232;2022-10-26T00:28:39;10.55;;;9.52;;
21202;SDS011;10759;51.982;9.232;2022-10-26T00:31:07;17.52;;;10.25;;
21202;SDS011;10759;51.982;9.232;2022-10-26T00:33:39;12.20;;;10.80;;
21202;SDS011;10759;51.982;9.232;2022-10-26T00:36:07;17.90;;;13.27;;
21202;SDS011;10759;51.982;9.232;2022-10-26T00:38:36;15.30;;;10.63;;
21202;SDS011;10759;51.982;9.232;2022-10-26T00:41:05;20.63;;;11.55;;
21202;SDS011;10759;51.982;9.232;2022-10-26T00:43:37;18.52;;;7.60;;
21202;SDS011;10759;51.982;9.232;2022-10-26T00:46:10;11.23;;;7.60;;
21202;SDS011;10759;51.982;9.232;2022-10-26T00:48:42;16.23;;;7.90;;
21202;SDS011;10759;51.982;9.232;2022-10-26T00:51:14;18.23;;;9.30;;
21202;SDS011;10759;51.982;9.232;2022-10-26T00:53:47;17.25;;;9.73;;
21202;SDS011;10759;51.982;9.232;2022-10-26T00:56:17;18.55;;;10.93;;
21202;SDS011;10759;51.982;9.232;2022-10-26T00:58:45;24.97;;;13.37;;
21202;SDS011;10759;51.982;9.232;2022-10-26T01:01:14;15.93;;;14.00;;
21202;SDS011;10759;51.982;9.232;2022-10-26T01:03:43;15.27;;;12.57;;
21202;SDS011;10759;51.982;9.232;2022-10-26T01:06:12;23.08;;;13.77;;
21202;SDS011;10759;51.982;9.232;2022-10-26T01:08:41;12.50;;;10.82;;
21202;SDS011;10759;51.982;9.232;2022-10-26T01:11:10;12.63;;;9.50;;
21202;SDS011;10759;51.982;9.232;2022-10-26T01:13:41;14.73;;;9.80;;
21202;SDS011;10759;51.982;9.232;2022-10-26T01:16:21;13.95;;;9.35;;
21202;SDS011;10759;51.982;9.232;2022-10-26T01:19:07;16.58;;;9.07;;
21202;SDS011;10759;51.982;9.232;2022-10-26T01:21:55;11.50;;;10.43;;
21202;SDS011;10759;51.982;9.232;2022-10-26T01:24:45;10.10;;;9.40;;
21202;SDS011;10759;51.982;9.232;2022-10-26T01:27:26;14.00;;;9.52;;
21202;SDS011;10759;51.982;9.232;2022-10-26T01:30:14;10.70;;;9.82;;
21202;SDS011;10759;51.982;9.232;2022-10-26T01:32:51;10.15;;;9.07;;
21202;SDS011;10759;51.982;9.232;2022-10-26T01:35:31;16.90;;;9.95;;
21202;SDS011;10759;51.982;9.232;2022-10-26T01:38:03;20.35;;;8.75;;
21202;SDS011;10759;51.982;9.232;2022-10-26T01:40:36;23.30;;;14.10;;
21202;SDS011;10759;51.982;9.232;2022-10-26T01:43:10;14.63;;;12.02;;
21202;SDS011;10759;51.982;9.232;2022-10-26T01:45:42;15.93;;;10.65;;
21202;SDS011;10759;51.982;9.232;2022-10-26T01:48:13;33.10;;;11.00;;
21202;SDS011;10759;51.982;9.232;2022-10-26T01:50:46;11.50;;;10.55;;
21202;SDS011;10759;51.982;9.232;2022-10-26T01:53:17;16.25;;;10.98;;
21202;SDS011;10759;51.982;9.232;2022-10-26T01:55:46;19.88;;;11.13;;
21202;SDS011;10759;51.982;9.232;2022-10-26T02:01:23;11.98;;;10.65;;
21202;SDS011;10759;51.982;9.232;2022-10-26T02:04:13;11.00;;;9.93;;
21202;SDS011;10759;51.982;9.232;2022-10-26T02:06:54;16.67;;;10.18;;
21202;SDS011;10759;51.982;9.232;2022-10-26T02:09:32;9.95;;;8.95;;
21202;SDS011;10759;51.982;9.232;2022-10-26T02:12:05;11.32;;;9.40;;
21202;SDS011;10759;51.982;9.232;2022-10-26T02:14:43;9.85;;;9.02;;
21202;SDS011;10759;51.982;9.232;2022-10-26T02:17:18;10.23;;;9.25;;
21202;SDS011;10759;51.982;9.232;2022-10-26T02:19:54;9.38;;;8.57;;
21202;SDS011;10759;51.982;9.232;2022-10-26T02:22:26;10.77;;;9.98;;
21202;SDS011;10759;51.982;9.232;2022-10-26T02:24:58;10.95;;;10.05;;
21202;SDS011;10759;51.982;9.232;2022-10-26T02:27:33;12.10;;;10.70;;
21202;SDS011;10759;51.982;9.232;2022-10-26T02:30:04;13.27;;;10.18;;
21202;SDS011;10759;51.982;9.232;2022-10-26T02:32:35;10.45;;;9.40;;
21202;SDS011;10759;51.982;9.232;2022-10-26T02:35:07;17.30;;;9.77;;
21202;SDS011;10759;51.982;9.232;2022-10-26T02:37:35;9.32;;;8.52;;
21202;SDS011;10759;51.982;9.232;2022-10-26T02:40:06;10.23;;;8.63;;
21202;SDS011;10759;51.982;9.232;2022-10-26T02:42:38;11.43;;;8.40;;
21202;SDS011;10759;51.982;9.232;2022-10-26T02:45:08;7.80;;;7.10;;
21202;SDS011;10759;51.982;9.232;2022-10-26T02:47:41;8.20;;;7.15;;
21202;SDS011;10759;51.982;9.232;2022-10-26T02:50:09;9.53;;;8.63;;
21202;SDS011;10759;51.982;9.232;2022-10-26T02:52:39;8.55;;;7.95;;
21202;SDS011;10759;51.982;9.232;2022-10-26T02:55:13;11.65;;;7.97;;
21202;SDS011;10759;51.982;9.232;2022-10-26T02:57:46;11.40;;;9.55;;
21202;SDS011;10759;51.982;9.232;2022-10-26T03:00:17;16.52;;;8.35;;
21202;SDS011;10759;51.982;9.232;2022-10-26T03:02:49;9.20;;;8.13;;
21202;SDS011;10759;51.982;9.232;2022-10-26T03:05:21;14.85;;;9.60;;
21202;SDS011;10759;51.982;9.232;2022-10-26T03:07:51;10.05;;;8.35;;
21202;SDS011;10759;51.982;9.232;2022-10-26T03:10:19;16.63;;;9.70;;
21202;SDS011;10759;51.982;9.232;2022-10-26T03:12:48;8.25;;;7.38;;
21202;SDS011;10759;51.982;9.232;2022-10-26T03:15:17;10.27;;;7.82;;
21202;SDS011;10759;51.982;9.232;2022-10-26T03:17:44;9.73;;;7.22;;
21202;SDS011;10759;51.982;9.232;2022-10-26T03:20:14;13.80;;;7.80;;
21202;SDS011;10759;51.982;9.232;2022-10-26T03:22:42;12.93;;;8.05;;
21202;SDS011;10759;51.982;9.232;2022-10-26T03:25:10;9.57;;;7.10;;
21202;SDS011;10759;51.982;9.232;2022-10-26T03:27:38;10.82;;;7.43;;
21202;SDS011;10759;51.982;9.232;2022-10-26T03:30:06;10.63;;;9.60;;
21202;SDS011;10759;51.982;9.232;2022-10-26T03:32:35;12.43;;;7.93;;
21202;SDS011;10759;51.982;9.232;2022-10-26T03:35:03;17.23;;;8.60;;
21202;SDS011;10759;51.982;9.232;2022-10-26T03:37:32;14.20;;;7.50;;
21202;SDS011;10759;51.982;9.232;2022-10-26T03:40:00;8.70;;;7.88;;
21202;SDS011;10759;51.982;9.232;2022-10-26T03:42:32;11.65;;;7.00;;
21202;SDS011;10759;51.982;9.232;2022-10-26T03:45:00;7.80;;;7.03;;
21202;SDS011;10759;51.982;9.232;2022-10-26T03:47:28;11.10;;;7.07;;
21202;SDS011;10759;51.982;9.232;2022-10-26T03:49:55;24.40;;;9.77;;
21202;SDS011;10759;51.982;9.232;2022-10-26T03:52:23;7.65;;;7.05;;
21202;SDS011;10759;51.982;9.232;2022-10-26T03:54:53;10.68;;;6.80;;
21202;SDS011;10759;51.982;9.232;2022-10-26T03:57:21;7.18;;;6.68;;
21202;SDS011;10759;51.982;9.232;2022-10-26T03:59:49;9.13;;;7.50;;
21202;SDS011;10759;51.982;9.232;2022-10-26T04:02:17;12.05;;;6.50;;
21202;SDS011;10759;51.982;9.232;2022-10-26T04:04:44;14.68;;;7.30;;
21202;SDS011;10759;51.982;9.232;2022-10-26T04:07:12;15.90;;;7.63;;
21202;SDS011;10759;51.982;9.232;2022-10-26T04:09:40;7.68;;;7.00;;
21202;SDS011;10759;51.982;9.232;2022-10-26T04:12:09;10.38;;;7.90;;
21202;SDS011;10759;51.982;9.232;2022-10-26T04:14:37;17.05;;;7.85;;
21202;SDS011;10759;51.982;9.232;2022-10-26T04:17:05;14.98;;;9.43;;
21202;SDS011;10759;51.982;9.232;2022-10-26T04:19:33;8.38;;;7.60;;
21202;SDS011;10759;51.982;9.232;2022-10-26T04:22:01;8.52;;;7.72;;
21202;SDS011;10759;51.982;9.232;2022-10-26T04:24:29;10.15;;;7.93;;
21202;SDS011;10759;51.982;9.232;2022-10-26T04:26:58;9.07;;;8.18;;
21202;SDS011;10759;51.982;9.232;2022-10-26T04:29:27;9.40;;;8.55;;
21202;SDS011;10759;51.982;9.232;2022-10-26T04:31:55;16.63;;;7.70;;
21202;SDS011;10759;51.982;9.232;2022-10-26T04:34:23;9.43;;;8.15;;
21202;SDS011;10759;51.982;9.232;2022-10-26T04:36:51;10.73;;;8.65;;
21202;SDS011;10759;51.982;9.232;2022-10-26T04:39:19;8.60;;;6.63;;
21202;SDS011;10759;51.982;9.232;2022-10-26T04:41:46;7.47;;;6.43;;
21202;SDS011;10759;51.982;9.232;2022-10-26T04:44:14;6.35;;;5.95;;
21202;SDS011;10759;51.982;9.232;2022-10-26T04:46:43;6.85;;;6.25;;
21202;SDS011;10759;51.982;9.232;2022-10-26T04:49:11;6.47;;;6.00;;
21202;SDS011;10759;51.982;9.232;2022-10-26T04:51:39;6.70;;;6.20;;
21202;SDS011;10759;51.982;9.232;2022-10-26T04:54:08;6.32;;;5.85;;
21202;SDS011;10759;51.982;9.232;2022-10-26T04:56:36;5.78;;;5.38;;
21202;SDS011;10759;51.982;9.232;2022-10-26T04:59:04;5.53;;;5.03;;
21202;SDS011;10759;51.982;9.232;2022-10-26T05:01:31;6.45;;;5.68;;
21202;SDS011;10759;51.982;9.232;2022-10-26T05:04:01;5.50;;;5.05;;
21202;SDS011;10759;51.982;9.232;2022-10-26T05:06:29;5.70;;;5.30;;
21202;SDS011;10759;51.982;9.232;2022-10-26T05:08:57;6.68;;;5.22;;
21202;SDS011;10759;51.982;9.232;2022-10-26T05:11:25;7.18;;;6.55;;
21202;SDS011;10759;51.982;9.232;2022-10-26T05:13:53;6.25;;;5.75;;
21202;SDS011;10759;51.982;9.232;2022-10-26T05:16:21;5.57;;;5.18;;
21202;SDS011;10759;51.982;9.232;2022-10-26T05:18:49;6.22;;;5.72;;
21202;SDS011;10759;51.982;9.232;2022-10-26T05:21:18;5.55;;;4.93;;
21202;SDS011;10759;51.982;9.232;2022-10-26T05:23:48;5.88;;;5.07;;
21202;SDS011;10759;51.982;9.232;2022-10-26T05:26:18;8.57;;;7.85;;
21202;SDS011;10759;51.982;9.232;2022-10-26T05:28:46;11.15;;;10.25;;
21202;SDS011;10759;51.982;9.232;2022-10-26T05:31:14;8.68;;;7.93;;
21202;SDS011;10759;51.982;9.232;2022-10-26T05:33:42;10.55;;;8.32;;
21202;SDS011;10759;51.982;9.232;2022-10-26T05:36:10;7.53;;;6.93;;
21202;SDS011;10759;51.982;9.232;2022-10-26T05:38:39;8.38;;;7.65;;
21202;SDS011;10759;51.982;9.232;2022-10-26T05:41:07;8.13;;;7.32;;
21202;SDS011;10759;51.982;9.232;2022-10-26T05:43:35;8.38;;;7.68;;
21202;SDS011;10759;51.982;9.232;2022-10-26T05:46:03;8.02;;;7.25;;
21202;SDS011;10759;51.982;9.232;2022-10-26T05:48:31;7.68;;;7.07;;
21202;SDS011;10759;51.982;9.232;2022-10-26T05:50:59;7.03;;;6.43;;
21202;SDS011;10759;51.982;9.232;2022-10-26T05:53:27;7.10;;;6.60;;
21202;SDS011;10759;51.982;9.232;2022-10-26T05:55:57;7.22;;;6.68;;
21202;SDS011;10759;51.982;9.232;2022-10-26T05:58:25;6.68;;;6.18;;
21202;SDS011;10759;51.982;9.232;2022-10-26T06:01:04;7.55;;;6.95;;
21202;SDS011;10759;51.982;9.232;2022-10-26T06:03:46;9.43;;;8.65;;
21202;SDS011;10759;51.982;9.232;2022-10-26T06:06:28;7.90;;;7.30;;
21202;SDS011;10759;51.982;9.232;2022-10-26T06:09:01;7.90;;;7.30;;
21202;SDS011;10759;51.982;9.232;2022-10-26T06:11:30;9.38;;;7.13;;
21202;SDS011;10759;51.982;9.232;2022-10-26T06:16:30;7.45;;;6.82;;
21202;SDS011;10759;51.982;9.232;2022-10-26T06:19:05;7.10;;;6.50;;
21202;SDS011;10759;51.982;9.232;2022-10-26T06:21:51;5.97;;;5.57;;
21202;SDS011;10759;51.982;9.232;2022-10-26T06:27:06;7.70;;;7.00;;
21202;SDS011;10759;51.982;9.232;2022-10-26T06:29:47;7.18;;;6.47;;
21202;SDS011;10759;51.982;9.232;2022-10-26T06:32:20;7.00;;;6.50;;
21202;SDS011;10759;51.982;9.232;2022-10-26T06:34:50;7.97;;;7.28;;
21202;SDS011;10759;51.982;9.232;2022-10-26T06:37:29;7.35;;;6.72;;
21202;SDS011;10759;51.982;9.232;2022-10-26T06:39:58;6.57;;;6.18;;
21202;SDS011;10759;51.982;9.232;2022-10-26T06:42:28;7.13;;;6.53;;
21202;SDS011;10759;51.982;9.232;2022-10-26T06:44:58;7.95;;;7.28;;
21202;SDS011;10759;51.982;9.232;2022-10-26T06:47:27;7.90;;;7.20;;
21202;SDS011;10759;51.982;9.232;2022-10-26T06:50:05;7.65;;;6.97;;
21202;SDS011;10759;51.982;9.232;2022-10-26T06:52:40;7.47;;;6.93;;
21202;SDS011;10759;51.982;9.232;2022-10-26T06:55:14;8.68;;;7.97;;
21202;SDS011;10759;51.982;9.232;2022-10-26T06:57:44;9.35;;;8.52;;
21202;SDS011;10759;51.982;9.232;2022-10-26T07:00:14;10.13;;;9.10;;
21202;SDS011;10759;51.982;9.232;2022-10-26T07:02:46;8.68;;;7.32;;
21202;SDS011;10759;51.982;9.232;2022-10-26T07:05:16;8.23;;;7.45;;
21202;SDS011;10759;51.982;9.232;2022-10-26T07:07:44;7.60;;;6.90;;
21202;SDS011;10759;51.982;9.232;2022-10-26T07:10:14;9.77;;;7.38;;
21202;SDS011;10759;51.982;9.232;2022-10-26T07:12:45;11.55;;;7.75;;
21202;SDS011;10759;51.982;9.232;2022-10-26T07:15:13;8.77;;;7.18;;
21202;SDS011;10759;51.982;9.232;2022-10-26T07:17:41;8.90;;;8.10;;
21202;SDS011;10759;51.982;9.232;2022-10-26T07:20:11;12.53;;;8.83;;
21202;SDS011;10759;51.982;9.232;2022-10-26T07:22:39;11.05;;;10.05;;
21202;SDS011;10759;51.982;9.232;2022-10-26T07:25:08;10.23;;;9.18;;
21202;SDS011;10759;51.982;9.232;2022-10-26T07:27:37;11.23;;;10.20;;
21202;SDS011;10759;51.982;9.232;2022-10-26T07:30:07;11.48;;;10.35;;
21202;SDS011;10759;51.982;9.232;2022-10-26T07:32:36;12.38;;;11.25;;
21202;SDS011;10759;51.982;9.232;2022-10-26T07:35:04;9.75;;;9.00;;
21202;SDS011;10759;51.982;9.232;2022-10-26T07:37:32;10.23;;;9.20;;
21202;SDS011;10759;51.982;9.232;2022-10-26T07:40:00;8.90;;;8.20;;
21202;SDS011;10759;51.982;9.232;2022-10-26T07:42:32;10.82;;;8.77;;
21202;SDS011;10759;51.982;9.232;2022-10-26T07:45:02;9.52;;;8.63;;
21202;SDS011;10759;51.982;9.232;2022-10-26T07:47:32;9.20;;;8.30;;
21202;SDS011;10759;51.982;9.232;2022-10-26T07:50:00;8.68;;;7.88;;
21202;SDS011;10759;51.982;9.232;2022-10-26T07:52:28;10.35;;;7.30;;
21202;SDS011;10759;51.982;9.232;2022-10-26T07:54:56;8.27;;;7.50;;
21202;SDS011;10759;51.982;9.232;2022-10-26T07:57:24;9.13;;;7.20;;
21202;SDS011;10759;51.982;9.232;2022-10-26T07:59:52;13.13;;;7.95;;
21202;SDS011;10759;51.982;9.232;2022-10-26T08:02:20;7.78;;;7.10;;
21202;SDS011;10759;51.982;9.232;2022-10-26T08:04:49;7.63;;;6.78;;
21202;SDS011;10759;51.982;9.232;2022-10-26T08:07:17;9.03;;;6.53;;
21202;SDS011;10759;51.982;9.232;2022-10-26T08:09:45;7.78;;;5.38;;
21202;SDS011;10759;51.982;9.232;2022-10-26T08:12:13;11.18;;;6.93;;
21202;SDS011;10759;51.982;9.232;2022-10-26T08:14:42;9.10;;;6.15;;
21202;SDS011;10759;51.982;9.232;2022-10-26T08:17:10;6.93;;;5.68;;
21202;SDS011;10759;51.982;9.232;2022-10-26T08:19:38;5.78;;;5.18;;
21202;SDS011;10759;51.982;9.232;2022-10-26T08:22:07;8.27;;;6.00;;
21202;SDS011;10759;51.982;9.232;2022-10-26T08:24:35;6.70;;;5.38;;
21202;SDS011;10759;51.982;9.232;2022-10-26T08:27:03;6.43;;;5.82;;
21202;SDS011;10759;51.982;9.232;2022-10-26T08:29:31;9.35;;;6.25;;
21202;SDS011;10759;51.982;9.232;2022-10-26T08:31:59;9.07;;;6.43;;
21202;SDS011;10759;51.982;9.232;2022-10-26T08:34:27;6.88;;;6.05;;
21202;SDS011;10759;51.982;9.232;2022-10-26T08:36:55;7.35;;;6.60;;
21202;SDS011;10759;51.982;9.232;2022-10-26T08:39:24;7.22;;;6.22;;
21202;SDS011;10759;51.982;9.232;2022-10-26T08:41:55;10.20;;;7.03;;
21202;SDS011;10759;51.982;9.232;2022-10-26T08:44:30;10.93;;;6.85;;
21202;SDS011;10759;51.982;9.232;2022-10-26T08:47:05;15.90;;;13.85;;
21202;SDS011;10759;51.982;9.232;2022-10-26T08:49:39;23.75;;;21.45;;
21202;SDS011;10759;51.982;9.232;2022-10-26T08:52:13;40.03;;;35.80;;
21202;SDS011;10759;51.982;9.232;2022-10-26T08:54:48;49.58;;;44.95;;
21202;SDS011;10759;51.982;9.232;2022-10-26T08:57:20;25.13;;;22.33;;
21202;SDS011;10759;51.982;9.232;2022-10-26T08:59:54;24.70;;;22.45;;
21202;SDS011;10759;51.982;9.232;2022-10-26T09:02:25;19.17;;;17.23;;
21202;SDS011;10759;51.982;9.232;2022-10-26T09:04:53;15.40;;;13.95;;
21202;SDS011;10759;51.982;9.232;2022-10-26T09:07:28;13.95;;;12.43;;
21202;SDS011;10759;51.982;9.232;2022-10-26T09:13:18;5.82;;;5.25;;
21202;SDS011;10759;51.982;9.232;2022-10-26T09:15:56;6.70;;;4.85;;
21202;SDS011;10759;51.982;9.232;2022-10-26T09:18:33;5.28;;;4.13;;
21202;SDS011;10759;51.982;9.232;2022-10-26T09:21:26;5.45;;;3.58;;
21202;SDS011;10759;51.982;9.232;2022-10-26T09:24:05;5.18;;;3.35;;
21202;SDS011;10759;51.982;9.232;2022-10-26T09:26:43;5.45;;;3.55;;
21202;SDS011;10759;51.982;9.232;2022-10-26T09:29:20;5.90;;;2.92;;
21202;SDS011;10759;51.982;9.232;2022-10-26T09:31:51;5.47;;;2.88;;
21202;SDS011;10759;51.982;9.232;2022-10-26T09:34:26;9.00;;;4.05;;
21202;SDS011;10759;51.982;9.232;2022-10-26T09:36:57;7.28;;;3.05;;
21202;SDS011;10759;51.982;9.232;2022-10-26T09:39:28;5.50;;;2.85;;
21202;SDS011;10759;51.982;9.232;2022-10-26T09:42:06;4.55;;;2.80;;
21202;SDS011;10759;51.982;9.232;2022-10-26T09:44:44;6.13;;;3.33;;
21202;SDS011;10759;51.982;9.232;2022-10-26T09:47:21;6.70;;;3.28;;
21202;SDS011;10759;51.982;9.232;2022-10-26T09:49:59;7.80;;;3.00;;
21202;SDS011;10759;51.982;9.232;2022-10-26T09:52:33;5.93;;;2.65;;
21202;SDS011;10759;51.982;9.232;2022-10-26T09:55:01;3.28;;;2.92;;
21202;SDS011;10759;51.982;9.232;2022-10-26T09:57:30;6.32;;;3.33;;
21202;SDS011;10759;51.982;9.232;2022-10-26T09:59:58;4.82;;;3.38;;
21202;SDS011;10759;51.982;9.232;2022-10-26T10:02:33;5.75;;;3.17;;
21202;SDS011;10759;51.982;9.232;2022-10-26T10:05:07;5.25;;;2.67;;
21202;SDS011;10759;51.982;9.232;2022-10-26T10:08:13;5.45;;;2.88;;
21202;SDS011;10759;51.982;9.232;2022-10-26T10:10:53;5.30;;;3.27;;
21202;SDS011;10759;51.982;9.232;2022-10-26T10:13:25;6.00;;;2.85;;
21202;SDS011;10759;51.982;9.232;2022-10-26T10:15:55;6.18;;;3.33;;
21202;SDS011;10759;51.982;9.232;2022-10-26T10:18:30;8.85;;;3.15;;
21202;SDS011;10759;51.982;9.232;2022-10-26T10:20:59;5.53;;;2.88;;
21202;SDS011;10759;51.982;9.232;2022-10-26T10:23:28;4.32;;;2.40;;
21202;SDS011;10759;51.982;9.232;2022-10-26T10:26:02;6.20;;;2.30;;
21202;SDS011;10759;51.982;9.232;2022-10-26T10:28:33;5.38;;;2.40;;
21202;SDS011;10759;51.982;9.232;2022-10-26T10:31:02;6.90;;;2.77;;
21202;SDS011;10759;51.982;9.232;2022-10-26T10:33:33;2.80;;;2.50;;
21202;SDS011;10759;51.982;9.232;2022-10-26T10:36:04;5.13;;;2.53;;
21202;SDS011;10759;51.982;9.232;2022-10-26T10:38:35;5.40;;;3.00;;
21202;SDS011;10759;51.982;9.232;2022-10-26T10:41:05;5.97;;;2.13;;
21202;SDS011;10759;51.982;9.232;2022-10-26T10:43:45;3.22;;;2.00;;
21202;SDS011;10759;51.982;9.232;2022-10-26T10:46:19;6.18;;;2.17;;
21202;SDS011;10759;51.982;9.232;2022-10-26T10:48:50;4.82;;;2.20;;
21202;SDS011;10759;51.982;9.232;2022-10-26T10:51:22;5.47;;;2.40;;
21202;SDS011;10759;51.982;9.232;2022-10-26T10:53:52;3.67;;;2.70;;
21202;SDS011;10759;51.982;9.232;2022-10-26T10:59:09;3.90;;;2.20;;
21202;SDS011;10759;51.982;9.232;2022-10-26T11:01:56;3.88;;;2.20;;
21202;SDS011;10759;51.982;9.232;2022-10-26T11:04:36;2.40;;;2.05;;
21202;SDS011;10759;51.982;9.232;2022-10-26T11:07:21;4.63;;;2.30;;
21202;SDS011;10759;51.982;9.232;2022-10-26T11:09:52;3.83;;;2.10;;
21202;SDS011;10759;51.982;9.232;2022-10-26T11:12:22;4.45;;;1.90;;
21202;SDS011;10759;51.982;9.232;2022-10-26T11:14:55;2.97;;;1.92;;
21202;SDS011;10759;51.982;9.232;2022-10-26T11:17:29;4.90;;;1.70;;
21202;SDS011;10759;51.982;9.232;2022-10-26T11:20:00;5.18;;;2.00;;
21202;SDS011;10759;51.982;9.232;2022-10-26T11:22:38;4.45;;;1.83;;
21202;SDS011;10759;51.982;9.232;2022-10-26T11:25:10;5.70;;;2.08;;
21202;SDS011;10759;51.982;9.232;2022-10-26T11:27:44;3.75;;;1.83;;
21202;SDS011;10759;51.982;9.232;2022-10-26T11:30:18;5.43;;;1.88;;
21202;SDS011;10759;51.982;9.232;2022-10-26T11:32:49;4.13;;;2.00;;
21202;SDS011;10759;51.982;9.232;2022-10-26T11:35:21;4.40;;;2.00;;
21202;SDS011;10759;51.982;9.232;2022-10-26T11:37:55;2.80;;;1.92;;
21202;SDS011;10759;51.982;9.232;2022-10-26T11:40:28;4.05;;;2.08;;
21202;SDS011;10759;51.982;9.232;2022-10-26T11:43:05;3.72;;;1.85;;
21202;SDS011;10759;51.982;9.232;2022-10-26T11:45:43;3.10;;;1.90;;
21202;SDS011;10759;51.982;9.232;2022-10-26T11:48:13;4.43;;;1.80;;
21202;SDS011;10759;51.982;9.232;2022-10-26T11:50:46;5.22;;;2.05;;
21202;SDS011;10759;51.982;9.232;2022-10-26T11:53:18;8.43;;;2.42;;
21202;SDS011;10759;51.982;9.232;2022-10-26T11:55:51;3.53;;;2.00;;
21202;SDS011;10759;51.982;9.232;2022-10-26T11:58:21;4.10;;;2.20;;
21202;SDS011;10759;51.982;9.232;2022-10-26T12:03:24;4.88;;;1.90;;
21202;SDS011;10759;51.982;9.232;2022-10-26T12:05:55;4.93;;;2.08;;
21202;SDS011;10759;51.982;9.232;2022-10-26T12:08:23;2.92;;;1.90;;
21202;SDS011;10759;51.982;9.232;2022-10-26T12:10:58;4.13;;;1.90;;
21202;SDS011;10759;51.982;9.232;2022-10-26T12:13:34;3.05;;;1.60;;
21202;SDS011;10759;51.982;9.232;2022-10-26T12:16:12;5.00;;;1.50;;
21202;SDS011;10759;51.982;9.232;2022-10-26T12:18:48;3.50;;;1.50;;
21202;SDS011;10759;51.982;9.232;2022-10-26T12:21:23;3.72;;;1.45;;
21202;SDS011;10759;51.982;9.232;2022-10-26T12:23:55;2.78;;;1.75;;
21202;SDS011;10759;51.982;9.232;2022-10-26T12:29:39;4.75;;;1.83;;
21202;SDS011;10759;51.982;9.232;2022-10-26T12:35:37;3.10;;;1.83;;
21202;SDS011;10759;51.982;9.232;2022-10-26T12:38:26;3.83;;;1.52;;
21202;SDS011;10759;51.982;9.232;2022-10-26T12:41:31;3.22;;;1.70;;
21202;SDS011;10759;51.982;9.232;2022-10-26T12:47:00;3.20;;;2.13;;
21202;SDS011;10759;51.982;9.232;2022-10-26T12:52:37;4.70;;;1.95;;
21202;SDS011;10759;51.982;9.232;2022-10-26T12:55:14;2.85;;;1.95;;
21202;SDS011;10759;51.982;9.232;2022-10-26T12:58:26;7.07;;;2.00;;
21202;SDS011;10759;51.982;9.232;2022-10-26T13:01:09;4.75;;;2.00;;
21202;SDS011;10759;51.982;9.232;2022-10-26T13:03:51;4.68;;;2.13;;
21202;SDS011;10759;51.982;9.232;2022-10-26T13:06:34;5.18;;;2.67;;
21202;SDS011;10759;51.982;9.232;2022-10-26T13:09:15;3.35;;;2.35;;
21202;SDS011;10759;51.982;9.232;2022-10-26T13:11:47;7.43;;;2.22;;
21202;SDS011;10759;51.982;9.232;2022-10-26T13:14:19;7.25;;;2.70;;
21202;SDS011;10759;51.982;9.232;2022-10-26T13:16:50;3.30;;;2.40;;
21202;SDS011;10759;51.982;9.232;2022-10-26T13:19:23;2.85;;;2.25;;
21202;SDS011;10759;51.982;9.232;2022-10-26T13:21:52;3.42;;;2.47;;
21202;SDS011;10759;51.982;9.232;2022-10-26T13:24:26;4.20;;;2.30;;
21202;SDS011;10759;51.982;9.232;2022-10-26T13:33:06;7.57;;;2.67;;
21202;SDS011;10759;51.982;9.232;2022-10-26T13:35:40;7.15;;;2.40;;
21202;SDS011;10759;51.982;9.232;2022-10-26T13:38:10;3.47;;;2.07;;
21202;SDS011;10759;51.982;9.232;2022-10-26T13:40:40;4.78;;;2.80;;
21202;SDS011;10759;51.982;9.232;2022-10-26T13:43:12;5.15;;;2.40;;
21202;SDS011;10759;51.982;9.232;2022-10-26T13:45:46;4.88;;;2.25;;
21202;SDS011;10759;51.982;9.232;2022-10-26T13:48:26;5.15;;;2.45;;
21202;SDS011;10759;51.982;9.232;2022-10-26T13:50:58;2.92;;;2.28;;
21202;SDS011;10759;51.982;9.232;2022-10-26T13:53:31;11.35;;;2.55;;
21202;SDS011;10759;51.982;9.232;2022-10-26T13:56:11;4.43;;;2.30;;
21202;SDS011;10759;51.982;9.232;2022-10-26T13:58:44;8.50;;;3.15;;
21202;SDS011;10759;51.982;9.232;2022-10-26T14:01:18;6.45;;;2.83;;
21202;SDS011;10759;51.982;9.232;2022-10-26T14:03:48;9.40;;;2.92;;
21202;SDS011;10759;51.982;9.232;2022-10-26T14:06:19;3.25;;;2.40;;
21202;SDS011;10759;51.982;9.232;2022-10-26T14:08:53;4.63;;;2.20;;
21202;SDS011;10759;51.982;9.232;2022-10-26T14:11:29;3.55;;;2.55;;
21202;SDS011;10759;51.982;9.232;2022-10-26T14:14:00;5.13;;;2.30;;
21202;SDS011;10759;51.982;9.232;2022-10-26T14:16:30;12.60;;;2.97;;
21202;SDS011;10759;51.982;9.232;2022-10-26T14:18:59;4.10;;;2.28;;
21202;SDS011;10759;51.982;9.232;2022-10-26T14:21:27;7.43;;;2.40;;
21202;SDS011;10759;51.982;9.232;2022-10-26T14:23:56;6.25;;;3.15;;
21202;SDS011;10759;51.982;9.232;2022-10-26T14:26:26;3.85;;;2.25;;
21202;SDS011;10759;51.982;9.232;2022-10-26T14:28:57;5.40;;;2.10;;
21202;SDS011;10759;51.982;9.232;2022-10-26T14:31:27;4.40;;;2.38;;
21202;SDS011;10759;51.982;9.232;2022-10-26T14:33:56;4.72;;;2.55;;
21202;SDS011;10759;51.982;9.232;2022-10-26T14:36:27;6.55;;;2.80;;
21202;SDS011;10759;51.982;9.232;2022-10-26T14:39:00;5.28;;;2.47;;
21202;SDS011;10759;51.982;9.232;2022-10-26T14:41:34;6.18;;;2.75;;
21202;SDS011;10759;51.982;9.232;2022-10-26T14:44:02;8.65;;;2.85;;
21202;SDS011;10759;51.982;9.232;2022-10-26T14:46:31;3.90;;;2.55;;
21202;SDS011;10759;51.982;9.232;2022-10-26T14:49:02;5.00;;;2.53;;
21202;SDS011;10759;51.982;9.232;2022-10-26T14:51:33;4.25;;;2.67;;
21202;SDS011;10759;51.982;9.232;2022-10-26T14:54:02;11.05;;;3.67;;
21202;SDS011;10759;51.982;9.232;2022-10-26T14:56:39;6.70;;;2.97;;
21202;SDS011;10759;51.982;9.232;2022-10-26T14:59:10;5.80;;;2.90;;
21202;SDS011;10759;51.982;9.232;2022-10-26T15:01:46;6.07;;;3.85;;
21202;SDS011;10759;51.982;9.232;2022-10-26T15:04:26;4.90;;;3.25;;
21202;SDS011;10759;51.982;9.232;2022-10-26T15:09:44;5.10;;;2.78;;
21202;SDS011;10759;51.982;9.232;2022-10-26T15:12:26;13.05;;;8.85;;
21202;SDS011;10759;51.982;9.232;2022-10-26T15:14:59;7.88;;;5.18;;
21202;SDS011;10759;51.982;9.232;2022-10-26T15:17:37;10.40;;;5.20;;
21202;SDS011;10759;51.982;9.232;2022-10-26T15:20:12;5.47;;;3.08;;
21202;SDS011;10759;51.982;9.232;2022-10-26T15:22:47;6.60;;;3.15;;
21202;SDS011;10759;51.982;9.232;2022-10-26T15:25:17;3.30;;;2.80;;
21202;SDS011;10759;51.982;9.232;2022-10-26T15:27:49;8.10;;;4.05;;
21202;SDS011;10759;51.982;9.232;2022-10-26T15:30:20;7.25;;;4.90;;
21202;SDS011;10759;51.982;9.232;2022-10-26T15:32:50;9.02;;;5.03;;
21202;SDS011;10759;51.982;9.232;2022-10-26T15:35:23;6.10;;;5.38;;
21202;SDS011;10759;51.982;9.232;2022-10-26T15:37:54;6.63;;;4.32;;
21202;SDS011;10759;51.982;9.232;2022-10-26T15:40:24;4.93;;;4.40;;
21202;SDS011;10759;51.982;9.232;2022-10-26T15:42:57;7.45;;;6.13;;
21202;SDS011;10759;51.982;9.232;2022-10-26T15:45:28;8.60;;;7.70;;
21202;SDS011;10759;51.982;9.232;2022-10-26T15:47:59;6.93;;;3.80;;